sensor_id;sensor_type;location;lat;lon;timestamp;temperature;humidity
48575;DHT22;34352;51.084;3.712;2023-06-26T00:02:04;21.90;1.00
48575;DHT22;34352;51.084;3.712;2023-06-26T00:04:29;22.00;1.00
48575;DHT22;34352;51.084;3.712;2023-06-26T00:06:55;21.90;1.00
48575;DHT22;34352;51.084;3.712;2023-06-26T00:09:21;21.90;1.00
48575;DHT22;34352;51.084;3.712;2023-06-26T00:11:47;21.80;1.00
48575;DHT22;34352;51.084;3.712;2023-06-26T00:14:12;21.80;1.00
48575;DHT22;34352;51.084;3.712;2023-06-26T00:16:38;21.80;1.00
48575;DHT22;34352;51.084;3.712;2023-06-26T00:19:04;21.70;1.00
48575;DHT22;34352;51.084;3.712;2023-06-26T00:21:29;21.60;1.00
48575;DHT22;34352;51.084;3.712;2023-06-26T00:23:56;21.50;1.00
48575;DHT22;34352;51.084;3.712;2023-06-26T00:26:22;21.40;1.00
48575;DHT22;34352;51.084;3.712;2023-06-26T00:28:49;21.30;1.00
48575;DHT22;34352;51.084;3.712;2023-06-26T00:31:15;21.30;1.00
48575;DHT22;34352;51.084;3.712;2023-06-26T00:33:40;21.30;1.00
48575;DHT22;34352;51.084;3.712;2023-06-26T00:36:06;21.30;1.00
48575;DHT22;34352;51.084;3.712;2023-06-26T00:38:32;21.30;1.00
48575;DHT22;34352;51.084;3.712;2023-06-26T00:40:57;21.30;1.00
48575;DHT22;34352;51.084;3.712;2023-06-26T00:43:23;21.30;1.00
48575;DHT22;34352;51.084;3.712;2023-06-26T00:45:49;21.30;1.00
48575;DHT22;34352;51.084;3.712;2023-06-26T00:48:14;21.20;1.00
48575;DHT22;34352;51.084;3.712;2023-06-26T00:50:41;21.20;1.00
48575;DHT22;34352;51.084;3.712;2023-06-26T00:53:09;21.10;1.00
48575;DHT22;34352;51.084;3.712;2023-06-26T00:55:35;21.10;1.00
48575;DHT22;34352;51.084;3.712;2023-06-26T00:58:00;21.00;1.00
48575;DHT22;34352;51.084;3.712;2023-06-26T01:00:26;21.00;1.00
48575;DHT22;34352;51.084;3.712;2023-06-26T01:02:52;20.90;1.00
48575;DHT22;34352;51.084;3.712;2023-06-26T01:05:19;20.90;1.00
48575;DHT22;34352;51.084;3.712;2023-06-26T01:07:49;20.90;1.00
48575;DHT22;34352;51.084;3.712;2023-06-26T01:10:16;20.80;1.00
48575;DHT22;34352;51.084;3.712;2023-06-26T01:12:42;20.80;1.00
48575;DHT22;34352;51.084;3.712;2023-06-26T01:15:08;20.80;1.00
48575;DHT22;34352;51.084;3.712;2023-06-26T01:17:37;20.80;1.00
48575;DHT22;34352;51.084;3.712;2023-06-26T01:20:04;20.80;1.00
48575;DHT22;34352;51.084;3.712;2023-06-26T01:22:39;20.80;1.00
48575;DHT22;34352;51.084;3.712;2023-06-26T01:27:48;20.80;1.00
48575;DHT22;34352;51.084;3.712;2023-06-26T01:30:16;20.80;1.00
48575;DHT22;34352;51.084;3.712;2023-06-26T01:32:43;20.80;1.00
48575;DHT22;34352;51.084;3.712;2023-06-26T01:35:09;20.80;1.00
48575;DHT22;34352;51.084;3.712;2023-06-26T01:37:36;20.70;1.00
48575;DHT22;34352;51.084;3.712;2023-06-26T01:40:02;20.70;1.00
48575;DHT22;34352;51.084;3.712;2023-06-26T01:42:31;20.60;1.00
48575;DHT22;34352;51.084;3.712;2023-06-26T01:44:57;20.50;1.00
48575;DHT22;34352;51.084;3.712;2023-06-26T01:47:28;20.50;1.00
48575;DHT22;34352;51.084;3.712;2023-06-26T01:50:05;20.40;1.00
48575;DHT22;34352;51.084;3.712;2023-06-26T01:52:41;20.30;1.00
48575;DHT22;34352;51.084;3.712;2023-06-26T01:55:17;20.30;1.00
48575;DHT22;34352;51.084;3.712;2023-06-26T01:57:46;20.20;1.00
48575;DHT22;34352;51.084;3.712;2023-06-26T02:00:15;20.10;1.00
48575;DHT22;34352;51.084;3.712;2023-06-26T02:02:44;20.10;1.00
48575;DHT22;34352;51.084;3.712;2023-06-26T02:05:09;20.00;1.00
48575;DHT22;34352;51.084;3.712;2023-06-26T02:07:35;20.00;1.00
48575;DHT22;34352;51.084;3.712;2023-06-26T02:10:02;19.90;1.00
48575;DHT22;34352;51.084;3.712;2023-06-26T02:12:34;19.80;1.00
48575;DHT22;34352;51.084;3.712;2023-06-26T02:15:01;19.80;1.00
48575;DHT22;34352;51.084;3.712;2023-06-26T02:17:28;19.60;1.00
48575;DHT22;34352;51.084;3.712;2023-06-26T02:20:02;19.60;1.00
48575;DHT22;34352;51.084;3.712;2023-06-26T02:22:29;19.50;1.00
48575;DHT22;34352;51.084;3.712;2023-06-26T02:24:56;19.40;3.50
48575;DHT22;34352;51.084;3.712;2023-06-26T02:27:25;19.40;4.40
48575;DHT22;34352;51.084;3.712;2023-06-26T02:29:51;19.40;6.00
48575;DHT22;34352;51.084;3.712;2023-06-26T02:32:17;19.40;7.00
48575;DHT22;34352;51.084;3.712;2023-06-26T02:34:42;19.40;6.50
48575;DHT22;34352;51.084;3.712;2023-06-26T02:37:08;19.40;7.00
48575;DHT22;34352;51.084;3.712;2023-06-26T02:39:34;19.30;9.30
48575;DHT22;34352;51.084;3.712;2023-06-26T02:42:00;19.20;11.80
48575;DHT22;34352;51.084;3.712;2023-06-26T02:44:29;19.20;13.20
48575;DHT22;34352;51.084;3.712;2023-06-26T02:46:54;19.10;13.40
48575;DHT22;34352;51.084;3.712;2023-06-26T02:49:20;19.20;10.00
48575;DHT22;34352;51.084;3.712;2023-06-26T02:51:46;19.10;11.80
48575;DHT22;34352;51.084;3.712;2023-06-26T02:54:11;19.20;9.00
48575;DHT22;34352;51.084;3.712;2023-06-26T02:56:37;19.10;11.00
48575;DHT22;34352;51.084;3.712;2023-06-26T02:59:03;19.10;12.00
48575;DHT22;34352;51.084;3.712;2023-06-26T03:01:29;19.10;13.40
48575;DHT22;34352;51.084;3.712;2023-06-26T03:03:54;19.10;11.00
48575;DHT22;34352;51.084;3.712;2023-06-26T03:06:20;19.00;11.80
48575;DHT22;34352;51.084;3.712;2023-06-26T03:08:46;19.00;10.40
48575;DHT22;34352;51.084;3.712;2023-06-26T03:11:12;18.90;12.30
48575;DHT22;34352;51.084;3.712;2023-06-26T03:13:37;18.90;13.40
48575;DHT22;34352;51.084;3.712;2023-06-26T03:16:04;18.80;15.50
48575;DHT22;34352;51.084;3.712;2023-06-26T03:18:30;18.70;18.30
48575;DHT22;34352;51.084;3.712;2023-06-26T03:20:56;18.70;18.40
48575;DHT22;34352;51.084;3.712;2023-06-26T03:23:23;18.60;16.80
48575;DHT22;34352;51.084;3.712;2023-06-26T03:25:50;18.60;16.70
48575;DHT22;34352;51.084;3.712;2023-06-26T03:28:17;18.60;15.50
48575;DHT22;34352;51.084;3.712;2023-06-26T03:30:43;18.50;19.00
48575;DHT22;34352;51.084;3.712;2023-06-26T03:33:09;18.50;17.70
48575;DHT22;34352;51.084;3.712;2023-06-26T03:35:34;18.40;20.10
48575;DHT22;34352;51.084;3.712;2023-06-26T03:38:01;18.30;21.80
48575;DHT22;34352;51.084;3.712;2023-06-26T03:40:27;18.30;22.10
48575;DHT22;34352;51.084;3.712;2023-06-26T03:42:53;18.30;21.60
48575;DHT22;34352;51.084;3.712;2023-06-26T03:45:18;18.30;21.10
48575;DHT22;34352;51.084;3.712;2023-06-26T03:47:45;18.20;20.10
48575;DHT22;34352;51.084;3.712;2023-06-26T03:50:14;18.20;20.70
48575;DHT22;34352;51.084;3.712;2023-06-26T03:52:40;18.20;20.80
48575;DHT22;34352;51.084;3.712;2023-06-26T03:55:06;18.10;20.30
48575;DHT22;34352;51.084;3.712;2023-06-26T03:57:32;18.10;19.20
48575;DHT22;34352;51.084;3.712;2023-06-26T03:59:58;18.10;17.70
48575;DHT22;34352;51.084;3.712;2023-06-26T04:02:24;18.00;20.60
48575;DHT22;34352;51.084;3.712;2023-06-26T04:04:50;18.10;18.30
48575;DHT22;34352;51.084;3.712;2023-06-26T04:07:15;18.10;16.70
48575;DHT22;34352;51.084;3.712;2023-06-26T04:09:41;18.00;16.20
48575;DHT22;34352;51.084;3.712;2023-06-26T04:12:07;18.00;16.00
48575;DHT22;34352;51.084;3.712;2023-06-26T04:14:33;18.00;15.60
48575;DHT22;34352;51.084;3.712;2023-06-26T04:16:59;18.00;13.00
48575;DHT22;34352;51.084;3.712;2023-06-26T04:19:27;18.10;11.00
48575;DHT22;34352;51.084;3.712;2023-06-26T04:21:53;18.10;6.80
48575;DHT22;34352;51.084;3.712;2023-06-26T04:24:18;18.10;7.30
48575;DHT22;34352;51.084;3.712;2023-06-26T04:26:44;18.10;7.40
48575;DHT22;34352;51.084;3.712;2023-06-26T04:29:11;18.20;1.00
48575;DHT22;34352;51.084;3.712;2023-06-26T04:31:36;18.20;1.00
48575;DHT22;34352;51.084;3.712;2023-06-26T04:34:04;18.10;1.00
48575;DHT22;34352;51.084;3.712;2023-06-26T04:36:29;18.10;1.00
48575;DHT22;34352;51.084;3.712;2023-06-26T04:38:56;18.10;1.00
48575;DHT22;34352;51.084;3.712;2023-06-26T04:41:22;18.10;1.00
48575;DHT22;34352;51.084;3.712;2023-06-26T04:43:48;18.20;1.00
48575;DHT22;34352;51.084;3.712;2023-06-26T04:46:13;18.10;1.00
48575;DHT22;34352;51.084;3.712;2023-06-26T04:48:39;18.20;1.00
48575;DHT22;34352;51.084;3.712;2023-06-26T04:51:05;18.20;1.00
48575;DHT22;34352;51.084;3.712;2023-06-26T04:53:30;18.30;1.00
48575;DHT22;34352;51.084;3.712;2023-06-26T04:55:56;18.20;1.00
48575;DHT22;34352;51.084;3.712;2023-06-26T04:58:22;18.20;1.00
48575;DHT22;34352;51.084;3.712;2023-06-26T05:00:48;18.20;1.00
48575;DHT22;34352;51.084;3.712;2023-06-26T05:03:15;18.20;1.00
48575;DHT22;34352;51.084;3.712;2023-06-26T05:05:42;18.20;1.00
48575;DHT22;34352;51.084;3.712;2023-06-26T05:08:16;18.20;1.00
48575;DHT22;34352;51.084;3.712;2023-06-26T05:10:41;18.30;1.00
48575;DHT22;34352;51.084;3.712;2023-06-26T05:13:08;18.30;1.00
48575;DHT22;34352;51.084;3.712;2023-06-26T05:15:34;18.40;1.00
48575;DHT22;34352;51.084;3.712;2023-06-26T05:18:00;18.50;1.00
48575;DHT22;34352;51.084;3.712;2023-06-26T05:20:25;18.60;1.00
48575;DHT22;34352;51.084;3.712;2023-06-26T05:22:52;18.60;1.00
48575;DHT22;34352;51.084;3.712;2023-06-26T05:25:18;18.60;1.00
48575;DHT22;34352;51.084;3.712;2023-06-26T05:27:46;18.70;1.00
48575;DHT22;34352;51.084;3.712;2023-06-26T05:30:13;18.70;1.00
48575;DHT22;34352;51.084;3.712;2023-06-26T05:32:40;18.90;1.00
48575;DHT22;34352;51.084;3.712;2023-06-26T05:35:06;19.00;1.00
48575;DHT22;34352;51.084;3.712;2023-06-26T05:37:33;19.00;1.00
48575;DHT22;34352;51.084;3.712;2023-06-26T05:40:00;19.00;1.00
48575;DHT22;34352;51.084;3.712;2023-06-26T05:42:27;19.10;1.00
48575;DHT22;34352;51.084;3.712;2023-06-26T05:44:53;19.30;1.00
48575;DHT22;34352;51.084;3.712;2023-06-26T05:47:19;19.50;1.00
48575;DHT22;34352;51.084;3.712;2023-06-26T05:49:45;19.60;1.00
48575;DHT22;34352;51.084;3.712;2023-06-26T05:52:12;19.70;1.00
48575;DHT22;34352;51.084;3.712;2023-06-26T05:54:38;20.00;1.00
48575;DHT22;34352;51.084;3.712;2023-06-26T05:57:04;20.00;1.00
48575;DHT22;34352;51.084;3.712;2023-06-26T05:59:31;20.20;1.00
48575;DHT22;34352;51.084;3.712;2023-06-26T06:01:57;20.30;1.00
48575;DHT22;34352;51.084;3.712;2023-06-26T06:04:24;20.40;1.00
48575;DHT22;34352;51.084;3.712;2023-06-26T06:06:50;20.60;1.00
48575;DHT22;34352;51.084;3.712;2023-06-26T06:09:15;20.70;1.00
48575;DHT22;34352;51.084;3.712;2023-06-26T06:11:41;20.70;1.00
48575;DHT22;34352;51.084;3.712;2023-06-26T06:14:07;20.80;1.00
48575;DHT22;34352;51.084;3.712;2023-06-26T06:16:34;20.90;1.00
48575;DHT22;34352;51.084;3.712;2023-06-26T06:19:00;21.00;1.00
48575;DHT22;34352;51.084;3.712;2023-06-26T06:21:25;21.10;1.00
48575;DHT22;34352;51.084;3.712;2023-06-26T06:23:51;21.00;1.00
48575;DHT22;34352;51.084;3.712;2023-06-26T06:26:18;20.90;1.00
48575;DHT22;34352;51.084;3.712;2023-06-26T06:28:43;20.70;1.00
48575;DHT22;34352;51.084;3.712;2023-06-26T06:31:09;20.80;1.00
48575;DHT22;34352;51.084;3.712;2023-06-26T06:33:35;21.00;1.00
48575;DHT22;34352;51.084;3.712;2023-06-26T06:36:01;21.00;1.00
48575;DHT22;34352;51.084;3.712;2023-06-26T06:38:29;21.00;1.00
48575;DHT22;34352;51.084;3.712;2023-06-26T06:40:57;21.00;1.00
48575;DHT22;34352;51.084;3.712;2023-06-26T06:43:22;21.20;1.00
48575;DHT22;34352;51.084;3.712;2023-06-26T06:45:50;21.20;1.00
48575;DHT22;34352;51.084;3.712;2023-06-26T06:48:17;21.40;1.00
48575;DHT22;34352;51.084;3.712;2023-06-26T06:50:43;21.50;1.00
48575;DHT22;34352;51.084;3.712;2023-06-26T06:53:22;21.60;1.00
48575;DHT22;34352;51.084;3.712;2023-06-26T06:55:49;21.60;1.00
48575;DHT22;34352;51.084;3.712;2023-06-26T06:58:15;21.70;1.00
48575;DHT22;34352;51.084;3.712;2023-06-26T07:00:42;21.70;1.00
48575;DHT22;34352;51.084;3.712;2023-06-26T07:03:08;21.90;1.00
48575;DHT22;34352;51.084;3.712;2023-06-26T07:05:34;22.10;99.90
48575;DHT22;34352;51.084;3.712;2023-06-26T07:07:59;22.20;99.90
48575;DHT22;34352;51.084;3.712;2023-06-26T07:10:25;22.40;99.90
48575;DHT22;34352;51.084;3.712;2023-06-26T07:12:51;22.80;99.90
48575;DHT22;34352;51.084;3.712;2023-06-26T07:15:20;23.40;99.90
48575;DHT22;34352;51.084;3.712;2023-06-26T07:17:46;23.60;99.90
48575;DHT22;34352;51.084;3.712;2023-06-26T07:20:12;23.50;99.90
48575;DHT22;34352;51.084;3.712;2023-06-26T07:22:42;23.50;99.90
48575;DHT22;34352;51.084;3.712;2023-06-26T07:25:09;23.40;99.90
48575;DHT22;34352;51.084;3.712;2023-06-26T07:27:38;23.60;99.90
48575;DHT22;34352;51.084;3.712;2023-06-26T07:30:04;24.00;99.90
48575;DHT22;34352;51.084;3.712;2023-06-26T07:32:30;24.00;99.90
48575;DHT22;34352;51.084;3.712;2023-06-26T07:34:57;24.50;99.90
48575;DHT22;34352;51.084;3.712;2023-06-26T07:37:22;25.10;99.90
48575;DHT22;34352;51.084;3.712;2023-06-26T07:39:49;25.30;99.90
48575;DHT22;34352;51.084;3.712;2023-06-26T07:42:15;25.30;99.90
48575;DHT22;34352;51.084;3.712;2023-06-26T07:44:44;25.30;99.90
48575;DHT22;34352;51.084;3.712;2023-06-26T07:47:10;25.70;99.90
48575;DHT22;34352;51.084;3.712;2023-06-26T07:49:36;25.60;99.90
48575;DHT22;34352;51.084;3.712;2023-06-26T07:52:03;25.80;99.90
48575;DHT22;34352;51.084;3.712;2023-06-26T07:54:29;26.10;99.90
48575;DHT22;34352;51.084;3.712;2023-06-26T07:57:05;26.50;99.90
48575;DHT22;34352;51.084;3.712;2023-06-26T07:59:39;26.80;99.90
48575;DHT22;34352;51.084;3.712;2023-06-26T08:02:05;27.50;99.90
48575;DHT22;34352;51.084;3.712;2023-06-26T08:04:31;27.60;99.90
48575;DHT22;34352;51.084;3.712;2023-06-26T08:06:58;27.10;99.90
48575;DHT22;34352;51.084;3.712;2023-06-26T08:09:27;26.60;99.90
48575;DHT22;34352;51.084;3.712;2023-06-26T08:11:53;26.50;99.90
48575;DHT22;34352;51.084;3.712;2023-06-26T08:14:19;26.80;99.90
48575;DHT22;34352;51.084;3.712;2023-06-26T08:16:45;26.70;99.90
48575;DHT22;34352;51.084;3.712;2023-06-26T08:19:14;25.90;99.90
48575;DHT22;34352;51.084;3.712;2023-06-26T08:21:41;25.40;99.90
48575;DHT22;34352;51.084;3.712;2023-06-26T08:24:07;25.70;99.90
48575;DHT22;34352;51.084;3.712;2023-06-26T08:26:34;26.30;99.90
48575;DHT22;34352;51.084;3.712;2023-06-26T08:29:00;26.60;99.90
48575;DHT22;34352;51.084;3.712;2023-06-26T08:31:25;27.00;99.90
48575;DHT22;34352;51.084;3.712;2023-06-26T08:33:51;27.10;99.90
48575;DHT22;34352;51.084;3.712;2023-06-26T08:36:17;27.90;1.00
48575;DHT22;34352;51.084;3.712;2023-06-26T08:38:43;29.00;99.90
48575;DHT22;34352;51.084;3.712;2023-06-26T08:41:09;28.30;1.00
48575;DHT22;34352;51.084;3.712;2023-06-26T08:43:35;28.10;1.00
48575;DHT22;34352;51.084;3.712;2023-06-26T08:46:02;28.40;1.00
48575;DHT22;34352;51.084;3.712;2023-06-26T08:48:30;28.80;1.00
48575;DHT22;34352;51.084;3.712;2023-06-26T08:50:57;29.50;1.00
48575;DHT22;34352;51.084;3.712;2023-06-26T08:53:37;30.50;1.00
48575;DHT22;34352;51.084;3.712;2023-06-26T08:56:07;30.80;1.00
48575;DHT22;34352;51.084;3.712;2023-06-26T08:58:36;30.70;1.00
48575;DHT22;34352;51.084;3.712;2023-06-26T09:01:04;30.40;1.00
48575;DHT22;34352;51.084;3.712;2023-06-26T09:03:31;30.20;1.00
48575;DHT22;34352;51.084;3.712;2023-06-26T09:05:57;29.90;1.00
48575;DHT22;34352;51.084;3.712;2023-06-26T09:08:23;30.30;1.00
48575;DHT22;34352;51.084;3.712;2023-06-26T09:10:48;30.70;1.00
48575;DHT22;34352;51.084;3.712;2023-06-26T09:13:14;29.20;1.00
48575;DHT22;34352;51.084;3.712;2023-06-26T09:15:44;29.00;1.00
48575;DHT22;34352;51.084;3.712;2023-06-26T09:18:10;29.00;1.00
48575;DHT22;34352;51.084;3.712;2023-06-26T09:20:36;28.30;1.00
48575;DHT22;34352;51.084;3.712;2023-06-26T09:23:03;27.20;1.00
48575;DHT22;34352;51.084;3.712;2023-06-26T09:25:29;27.50;1.00
48575;DHT22;34352;51.084;3.712;2023-06-26T09:27:56;28.10;1.00
48575;DHT22;34352;51.084;3.712;2023-06-26T09:30:22;28.50;1.00
48575;DHT22;34352;51.084;3.712;2023-06-26T09:32:48;28.30;1.00
48575;DHT22;34352;51.084;3.712;2023-06-26T09:35:15;27.40;1.00
48575;DHT22;34352;51.084;3.712;2023-06-26T09:37:40;26.80;1.00
48575;DHT22;34352;51.084;3.712;2023-06-26T09:40:06;26.50;1.00
48575;DHT22;34352;51.084;3.712;2023-06-26T09:42:33;26.10;1.00
48575;DHT22;34352;51.084;3.712;2023-06-26T09:44:59;26.10;1.00
48575;DHT22;34352;51.084;3.712;2023-06-26T09:47:25;25.70;1.00
48575;DHT22;34352;51.084;3.712;2023-06-26T09:49:51;25.30;1.00
48575;DHT22;34352;51.084;3.712;2023-06-26T09:52:18;25.20;1.00
48575;DHT22;34352;51.084;3.712;2023-06-26T09:54:48;25.80;1.00
48575;DHT22;34352;51.084;3.712;2023-06-26T09:57:16;26.80;1.00
48575;DHT22;34352;51.084;3.712;2023-06-26T09:59:42;26.80;1.00
48575;DHT22;34352;51.084;3.712;2023-06-26T10:02:11;26.30;1.00
48575;DHT22;34352;51.084;3.712;2023-06-26T10:04:37;25.80;1.00
48575;DHT22;34352;51.084;3.712;2023-06-26T10:07:10;25.60;1.00
48575;DHT22;34352;51.084;3.712;2023-06-26T10:09:40;26.50;1.00
48575;DHT22;34352;51.084;3.712;2023-06-26T10:12:18;27.50;1.00
48575;DHT22;34352;51.084;3.712;2023-06-26T10:14:46;28.50;1.00
48575;DHT22;34352;51.084;3.712;2023-06-26T10:17:16;29.00;1.00
48575;DHT22;34352;51.084;3.712;2023-06-26T10:19:44;29.60;1.00
48575;DHT22;34352;51.084;3.712;2023-06-26T10:22:12;29.20;1.00
48575;DHT22;34352;51.084;3.712;2023-06-26T10:24:40;28.20;1.00
48575;DHT22;34352;51.084;3.712;2023-06-26T10:27:33;26.90;1.00
48575;DHT22;34352;51.084;3.712;2023-06-26T10:30:03;26.60;1.00
48575;DHT22;34352;51.084;3.712;2023-06-26T10:32:31;27.50;1.00
48575;DHT22;34352;51.084;3.712;2023-06-26T10:34:57;28.80;1.00
48575;DHT22;34352;51.084;3.712;2023-06-26T10:37:49;29.70;1.00
48575;DHT22;34352;51.084;3.712;2023-06-26T10:40:26;29.90;1.00
48575;DHT22;34352;51.084;3.712;2023-06-26T10:43:05;28.20;1.00
48575;DHT22;34352;51.084;3.712;2023-06-26T10:45:34;27.60;1.00
48575;DHT22;34352;51.084;3.712;2023-06-26T10:48:03;28.00;1.00
48575;DHT22;34352;51.084;3.712;2023-06-26T10:50:32;29.00;1.00
48575;DHT22;34352;51.084;3.712;2023-06-26T11:01:26;25.80;1.00
48575;DHT22;34352;51.084;3.712;2023-06-26T11:06:35;25.70;1.00
48575;DHT22;34352;51.084;3.712;2023-06-26T11:14:48;29.40;1.00
48575;DHT22;34352;51.084;3.712;2023-06-26T11:17:14;29.10;1.00
48575;DHT22;34352;51.084;3.712;2023-06-26T11:19:43;29.30;1.00
48575;DHT22;34352;51.084;3.712;2023-06-26T11:22:08;29.80;1.00
48575;DHT22;34352;51.084;3.712;2023-06-26T11:24:35;30.60;1.00
48575;DHT22;34352;51.084;3.712;2023-06-26T11:27:02;30.60;1.00
48575;DHT22;34352;51.084;3.712;2023-06-26T11:29:29;31.50;1.00
48575;DHT22;34352;51.084;3.712;2023-06-26T11:31:59;31.40;1.00
48575;DHT22;34352;51.084;3.712;2023-06-26T11:34:30;31.20;1.00
48575;DHT22;34352;51.084;3.712;2023-06-26T11:36:57;31.50;1.00
48575;DHT22;34352;51.084;3.712;2023-06-26T11:39:23;31.90;1.00
48575;DHT22;34352;51.084;3.712;2023-06-26T11:41:48;32.40;1.00
48575;DHT22;34352;51.084;3.712;2023-06-26T11:44:14;32.40;1.00
48575;DHT22;34352;51.084;3.712;2023-06-26T11:46:45;32.60;1.00
48575;DHT22;34352;51.084;3.712;2023-06-26T11:49:16;32.10;1.00
48575;DHT22;34352;51.084;3.712;2023-06-26T11:51:42;31.10;1.00
48575;DHT22;34352;51.084;3.712;2023-06-26T11:54:08;30.80;1.00
48575;DHT22;34352;51.084;3.712;2023-06-26T11:56:33;31.10;1.00
48575;DHT22;34352;51.084;3.712;2023-06-26T11:59:04;31.60;1.00
48575;DHT22;34352;51.084;3.712;2023-06-26T12:01:32;30.70;1.00
48575;DHT22;34352;51.084;3.712;2023-06-26T12:04:06;30.20;1.00
48575;DHT22;34352;51.084;3.712;2023-06-26T12:06:53;29.80;1.00
48575;DHT22;34352;51.084;3.712;2023-06-26T12:09:23;28.90;1.00
48575;DHT22;34352;51.084;3.712;2023-06-26T12:11:53;28.30;1.00
48575;DHT22;34352;51.084;3.712;2023-06-26T12:14:20;28.20;1.00
48575;DHT22;34352;51.084;3.712;2023-06-26T12:16:47;28.40;1.00
48575;DHT22;34352;51.084;3.712;2023-06-26T12:19:13;28.50;1.00
48575;DHT22;34352;51.084;3.712;2023-06-26T12:24:08;29.50;1.00
48575;DHT22;34352;51.084;3.712;2023-06-26T12:26:34;29.90;1.00
48575;DHT22;34352;51.084;3.712;2023-06-26T12:29:15;29.30;1.00
48575;DHT22;34352;51.084;3.712;2023-06-26T12:31:51;28.60;1.00
48575;DHT22;34352;51.084;3.712;2023-06-26T12:34:20;29.00;1.00
48575;DHT22;34352;51.084;3.712;2023-06-26T12:36:48;29.80;1.00
48575;DHT22;34352;51.084;3.712;2023-06-26T12:39:17;29.70;1.00
48575;DHT22;34352;51.084;3.712;2023-06-26T12:41:52;28.90;1.00
48575;DHT22;34352;51.084;3.712;2023-06-26T12:46:54;29.00;1.00
48575;DHT22;34352;51.084;3.712;2023-06-26T12:49:20;29.20;1.00
48575;DHT22;34352;51.084;3.712;2023-06-26T12:51:46;29.20;1.00
48575;DHT22;34352;51.084;3.712;2023-06-26T12:54:12;28.30;1.00
48575;DHT22;34352;51.084;3.712;2023-06-26T12:56:37;28.80;1.00
48575;DHT22;34352;51.084;3.712;2023-06-26T12:59:06;29.50;1.00
48575;DHT22;34352;51.084;3.712;2023-06-26T13:01:32;29.40;1.00
48575;DHT22;34352;51.084;3.712;2023-06-26T13:03:59;28.70;1.00
48575;DHT22;34352;51.084;3.712;2023-06-26T13:06:24;28.20;1.00
48575;DHT22;34352;51.084;3.712;2023-06-26T13:08:50;28.20;1.00
48575;DHT22;34352;51.084;3.712;2023-06-26T13:11:16;28.10;1.00
48575;DHT22;34352;51.084;3.712;2023-06-26T13:13:43;28.60;1.00
48575;DHT22;34352;51.084;3.712;2023-06-26T13:16:10;29.20;1.00
48575;DHT22;34352;51.084;3.712;2023-06-26T13:18:37;29.80;1.00
48575;DHT22;34352;51.084;3.712;2023-06-26T13:21:02;29.70;1.00
48575;DHT22;34352;51.084;3.712;2023-06-26T13:23:28;30.00;1.00
48575;DHT22;34352;51.084;3.712;2023-06-26T13:25:54;30.20;1.00
48575;DHT22;34352;51.084;3.712;2023-06-26T13:28:19;30.20;1.00
48575;DHT22;34352;51.084;3.712;2023-06-26T13:30:46;30.80;1.00
48575;DHT22;34352;51.084;3.712;2023-06-26T13:33:12;31.00;1.00
48575;DHT22;34352;51.084;3.712;2023-06-26T13:35:37;31.40;1.00
48575;DHT22;34352;51.084;3.712;2023-06-26T13:38:03;31.50;1.00
48575;DHT22;34352;51.084;3.712;2023-06-26T13:40:28;31.80;1.00
48575;DHT22;34352;51.084;3.712;2023-06-26T13:42:54;32.00;1.00
48575;DHT22;34352;51.084;3.712;2023-06-26T13:45:24;32.10;1.00
48575;DHT22;34352;51.084;3.712;2023-06-26T13:47:50;31.70;1.00
48575;DHT22;34352;51.084;3.712;2023-06-26T13:50:16;31.30;1.00
48575;DHT22;34352;51.084;3.712;2023-06-26T13:52:41;31.00;1.00
48575;DHT22;34352;51.084;3.712;2023-06-26T13:55:08;30.60;1.00
48575;DHT22;34352;51.084;3.712;2023-06-26T13:57:33;30.30;1.00
48575;DHT22;34352;51.084;3.712;2023-06-26T13:59:59;30.10;1.00
48575;DHT22;34352;51.084;3.712;2023-06-26T14:02:25;29.90;1.00
48575;DHT22;34352;51.084;3.712;2023-06-26T14:04:51;29.80;1.00
48575;DHT22;34352;51.084;3.712;2023-06-26T14:07:17;29.60;1.00
48575;DHT22;34352;51.084;3.712;2023-06-26T14:09:43;29.50;1.00
48575;DHT22;34352;51.084;3.712;2023-06-26T14:12:09;29.50;1.00
48575;DHT22;34352;51.084;3.712;2023-06-26T14:14:34;29.60;1.00
48575;DHT22;34352;51.084;3.712;2023-06-26T14:17:03;29.60;1.00
48575;DHT22;34352;51.084;3.712;2023-06-26T14:19:31;29.30;1.00
48575;DHT22;34352;51.084;3.712;2023-06-26T14:21:56;29.20;1.00
48575;DHT22;34352;51.084;3.712;2023-06-26T14:24:23;29.40;1.00
48575;DHT22;34352;51.084;3.712;2023-06-26T14:26:49;29.50;1.00
48575;DHT22;34352;51.084;3.712;2023-06-26T14:29:14;29.40;1.00
48575;DHT22;34352;51.084;3.712;2023-06-26T14:31:43;29.10;1.00
48575;DHT22;34352;51.084;3.712;2023-06-26T14:34:09;29.00;1.00
48575;DHT22;34352;51.084;3.712;2023-06-26T14:36:35;28.80;1.00
48575;DHT22;34352;51.084;3.712;2023-06-26T14:39:00;28.70;1.00
48575;DHT22;34352;51.084;3.712;2023-06-26T14:41:26;28.30;1.00
48575;DHT22;34352;51.084;3.712;2023-06-26T14:43:53;27.90;1.00
48575;DHT22;34352;51.084;3.712;2023-06-26T14:46:18;27.70;1.00
48575;DHT22;34352;51.084;3.712;2023-06-26T14:48:44;27.70;1.00
48575;DHT22;34352;51.084;3.712;2023-06-26T14:51:11;27.60;1.00
48575;DHT22;34352;51.084;3.712;2023-06-26T14:53:37;27.30;1.00
48575;DHT22;34352;51.084;3.712;2023-06-26T14:56:05;27.00;1.00
48575;DHT22;34352;51.084;3.712;2023-06-26T14:58:31;26.90;1.00
48575;DHT22;34352;51.084;3.712;2023-06-26T15:00:57;26.80;1.00
48575;DHT22;34352;51.084;3.712;2023-06-26T15:03:23;26.60;1.00
48575;DHT22;34352;51.084;3.712;2023-06-26T15:05:49;26.60;1.00
48575;DHT22;34352;51.084;3.712;2023-06-26T15:08:17;26.70;1.00
48575;DHT22;34352;51.084;3.712;2023-06-26T15:10:42;26.60;1.00
48575;DHT22;34352;51.084;3.712;2023-06-26T15:13:11;26.80;1.00
48575;DHT22;34352;51.084;3.712;2023-06-26T15:15:38;26.90;1.00
48575;DHT22;34352;51.084;3.712;2023-06-26T15:18:04;26.90;1.00
48575;DHT22;34352;51.084;3.712;2023-06-26T15:20:31;27.00;1.00
48575;DHT22;34352;51.084;3.712;2023-06-26T15:22:58;27.10;1.00
48575;DHT22;34352;51.084;3.712;2023-06-26T15:25:24;27.00;1.00
48575;DHT22;34352;51.084;3.712;2023-06-26T15:27:50;27.20;1.00
48575;DHT22;34352;51.084;3.712;2023-06-26T15:30:16;27.30;1.00
48575;DHT22;34352;51.084;3.712;2023-06-26T15:32:41;27.10;1.00
48575;DHT22;34352;51.084;3.712;2023-06-26T15:35:09;27.00;1.00
48575;DHT22;34352;51.084;3.712;2023-06-26T15:37:35;27.00;1.00
48575;DHT22;34352;51.084;3.712;2023-06-26T15:40:09;26.90;1.00
48575;DHT22;34352;51.084;3.712;2023-06-26T15:42:48;26.60;1.00
48575;DHT22;34352;51.084;3.712;2023-06-26T15:45:15;26.50;1.00
48575;DHT22;34352;51.084;3.712;2023-06-26T15:47:44;26.50;1.00
48575;DHT22;34352;51.084;3.712;2023-06-26T15:50:10;26.30;1.00
48575;DHT22;34352;51.084;3.712;2023-06-26T15:52:37;26.10;1.00
48575;DHT22;34352;51.084;3.712;2023-06-26T15:55:04;26.00;1.00
48575;DHT22;34352;51.084;3.712;2023-06-26T15:57:31;25.90;1.00
48575;DHT22;34352;51.084;3.712;2023-06-26T15:59:57;25.70;1.00
48575;DHT22;34352;51.084;3.712;2023-06-26T16:02:23;25.70;1.00
48575;DHT22;34352;51.084;3.712;2023-06-26T16:04:49;25.70;1.00
48575;DHT22;34352;51.084;3.712;2023-06-26T16:07:15;25.70;1.00